createdAt,value
2018-03-25T00:00:08.190Z,0
2018-03-25T00:01:07.645Z,0
2018-03-25T00:02:07.631Z,0
2018-03-25T00:03:07.875Z,0
2018-03-25T00:04:07.855Z,0
2018-03-25T00:05:07.580Z,0
2018-03-25T00:06:07.826Z,0
2018-03-25T00:07:07.543Z,0
2018-03-25T00:08:07.262Z,0
2018-03-25T00:09:08.036Z,0
2018-03-25T00:10:07.493Z,0
2018-03-25T00:11:07.721Z,0
2018-03-25T00:12:07.969Z,0
2018-03-25T00:13:07.692Z,0
2018-03-25T00:14:07.932Z,0
2018-03-25T00:15:07.394Z,0
2018-03-25T00:16:07.641Z,0
2018-03-25T00:17:07.622Z,0
2018-03-25T00:18:07.599Z,0
2018-03-25T00:19:07.590Z,0
2018-03-25T00:20:07.044Z,0
2018-03-25T00:21:07.552Z,0
2018-03-25T00:22:07.272Z,0
2018-03-25T00:23:07.255Z,0
2018-03-25T00:24:07.759Z,0
2018-03-25T00:25:07.210Z,0
2018-03-25T00:26:06.934Z,0
2018-03-25T00:27:07.451Z,0
2018-03-25T00:28:07.157Z,0
2018-03-25T00:29:07.140Z,0
2018-03-25T00:30:07.123Z,0
2018-03-25T00:31:07.619Z,0
2018-03-25T00:32:07.339Z,0
2018-03-25T00:33:07.318Z,0
2018-03-25T00:34:07.303Z,0
2018-03-25T00:35:07.024Z,0
2018-03-25T00:36:06.772Z,0
2018-03-25T00:37:07.516Z,0
2018-03-25T00:38:07.492Z,0
2018-03-25T00:39:07.219Z,0
2018-03-25T00:40:06.956Z,0
2018-03-25T00:41:07.192Z,0
2018-03-25T00:42:07.417Z,0
2018-03-25T00:43:07.151Z,0
2018-03-25T00:44:07.130Z,0
2018-03-25T00:45:07.119Z,0
2018-03-25T00:46:07.124Z,0
2018-03-25T00:47:07.076Z,0
2018-03-25T00:48:07.086Z,0
2018-03-25T00:49:07.091Z,0
2018-03-25T00:50:06.491Z,0
2018-03-25T00:51:07.091Z,0
2018-03-25T00:52:06.756Z,0
2018-03-25T00:53:06.950Z,0
2018-03-25T00:54:07.227Z,0
2018-03-25T00:55:06.949Z,0
2018-03-25T00:56:06.127Z,0
2018-03-25T00:57:06.658Z,0
2018-03-25T00:58:06.864Z,0
2018-03-25T00:59:06.857Z,0
2018-03-25T01:00:06.855Z,0
2018-03-25T01:01:06.291Z,0
2018-03-25T01:02:06.534Z,0
2018-03-25T01:03:06.772Z,0
2018-03-25T01:04:07.012Z,0
2018-03-25T01:05:06.736Z,0
2018-03-25T01:06:06.460Z,0
2018-03-25T01:07:06.703Z,0
2018-03-25T01:08:06.965Z,0
2018-03-25T01:09:06.660Z,0
2018-03-25T01:10:06.644Z,0
2018-03-25T01:11:06.369Z,0
2018-03-25T01:12:06.364Z,0
2018-03-25T01:13:06.852Z,0
2018-03-25T01:14:06.585Z,0
2018-03-25T01:15:06.041Z,0
2018-03-25T01:16:06.552Z,0
2018-03-25T01:17:06.520Z,0
2018-03-25T01:18:06.250Z,0
2018-03-25T01:19:06.482Z,0
2018-03-25T01:20:06.205Z,0
2018-03-25T01:21:06.195Z,0
2018-03-25T01:22:05.909Z,0
2018-03-25T01:23:06.410Z,0
2018-03-25T01:24:06.136Z,0
2018-03-25T01:25:06.117Z,0
2018-03-25T01:26:06.102Z,0
2018-03-25T01:27:06.079Z,0
2018-03-25T01:28:06.067Z,0
2018-03-25T01:29:06.051Z,0
2018-03-25T01:30:06.023Z,0
2018-03-25T01:31:06.005Z,0
2018-03-25T01:32:06.503Z,0
2018-03-25T01:33:05.978Z,0
2018-03-25T01:34:06.209Z,0
2018-03-25T01:35:06.193Z,0
2018-03-25T01:36:05.916Z,0
2018-03-25T01:37:06.157Z,0
2018-03-25T01:38:06.145Z,0
2018-03-25T01:39:06.125Z,0
2018-03-25T01:40:05.844Z,0
2018-03-25T01:41:05.864Z,0
2018-03-25T01:42:06.320Z,0
2018-03-25T01:43:06.044Z,0
2018-03-25T01:44:06.031Z,0
2018-03-25T01:45:06.011Z,0
2018-03-25T01:46:06.001Z,0
2018-03-25T01:47:05.979Z,0
2018-03-25T01:48:06.219Z,0
2018-03-25T01:49:06.200Z,0
2018-03-25T01:50:05.659Z,0
2018-03-25T01:51:05.638Z,0
2018-03-25T01:52:05.886Z,0
2018-03-25T01:53:05.859Z,0
2018-03-25T01:54:05.849Z,0
2018-03-25T01:55:05.831Z,0
2018-03-25T01:56:05.814Z,0
2018-03-25T01:57:05.798Z,0
2018-03-25T01:58:06.032Z,0
2018-03-25T01:59:05.755Z,0
2018-03-25T02:00:05.222Z,0
2018-03-25T02:01:05.722Z,0
2018-03-25T02:02:05.704Z,0
2018-03-25T02:03:05.688Z,0
2018-03-25T02:04:05.664Z,0
2018-03-25T02:05:05.906Z,0
2018-03-25T02:06:05.383Z,0
2018-03-25T02:07:05.094Z,0
2018-03-25T02:08:05.614Z,0
2018-03-25T02:09:05.572Z,0
2018-03-25T02:10:05.811Z,0
2018-03-25T02:11:05.797Z,0
2018-03-25T02:12:05.794Z,0
2018-03-25T02:13:05.247Z,0
2018-03-25T02:14:05.787Z,0
2018-03-25T02:15:05.459Z,0
2018-03-25T02:16:05.445Z,0
2018-03-25T02:17:05.424Z,0
2018-03-25T02:18:05.149Z,0
2018-03-25T02:19:05.390Z,0
2018-03-25T02:20:05.632Z,0
2018-03-25T02:21:05.363Z,0
2018-03-25T02:22:05.123Z,0
2018-03-25T02:23:05.320Z,0
2018-03-25T02:24:05.297Z,0
2018-03-25T02:25:05.282Z,0
2018-03-25T02:26:05.520Z,0
2018-03-25T02:27:04.984Z,0
2018-03-25T02:28:05.037Z,0
2018-03-25T02:29:04.958Z,0
2018-03-25T02:30:04.946Z,0
2018-03-25T02:31:04.919Z,0
2018-03-25T02:32:05.452Z,0
2018-03-25T02:33:05.415Z,0
2018-03-25T02:34:05.124Z,0
2018-03-25T02:35:05.118Z,0
2018-03-25T02:36:05.126Z,0
2018-03-25T02:37:04.820Z,0
2018-03-25T02:38:05.312Z,0
2018-03-25T02:39:05.045Z,0
2018-03-25T02:40:04.749Z,0
2018-03-25T02:41:04.738Z,0
2018-03-25T02:42:05.264Z,0
2018-03-25T02:43:05.240Z,0
2018-03-25T02:44:04.953Z,0
2018-03-25T02:45:04.929Z,0
2018-03-25T02:46:04.922Z,0
2018-03-25T02:47:04.106Z,0
2018-03-25T02:48:04.620Z,0
2018-03-25T02:49:04.846Z,0
2018-03-25T02:50:05.008Z,0
2018-03-25T02:51:04.568Z,0
2018-03-25T02:52:04.809Z,0
2018-03-25T02:53:04.781Z,0
2018-03-25T02:54:04.768Z,0
2018-03-25T02:55:04.477Z,0
2018-03-25T02:56:04.723Z,0
2018-03-25T02:57:04.178Z,0
2018-03-25T02:58:04.433Z,0
2018-03-25T02:59:04.700Z,0
2018-03-25T03:00:04.661Z,0
2018-03-25T03:01:04.372Z,0
2018-03-25T03:02:04.615Z,0
2018-03-25T03:03:04.591Z,0
2018-03-25T03:04:04.580Z,0
2018-03-25T03:05:04.558Z,0
2018-03-25T03:06:04.283Z,0
2018-03-25T03:07:04.792Z,0
2018-03-25T03:08:04.776Z,0
2018-03-25T03:09:03.962Z,0
2018-03-25T03:10:04.471Z,0
2018-03-25T03:11:04.181Z,0
2018-03-25T03:12:04.422Z,0
2018-03-25T03:13:04.403Z,0
2018-03-25T03:14:04.392Z,0
2018-03-25T03:15:04.110Z,0
2018-03-25T03:16:04.103Z,0
2018-03-25T03:17:04.075Z,0
2018-03-25T03:18:03.792Z,0
2018-03-25T03:19:04.034Z,0
2018-03-25T03:20:04.012Z,0
2018-03-25T03:21:04.266Z,0
2018-03-25T03:22:03.975Z,0
2018-03-25T03:23:04.217Z,0
2018-03-25T03:24:04.200Z,0
2018-03-25T03:25:03.665Z,0
2018-03-25T03:26:04.160Z,0
2018-03-25T03:27:04.141Z,0
2018-03-25T03:28:04.118Z,0
2018-03-25T03:29:03.841Z,0
2018-03-25T03:30:04.087Z,0
2018-03-25T03:31:03.818Z,0
2018-03-25T03:32:03.791Z,0
2018-03-25T03:33:03.769Z,0
2018-03-25T03:34:04.018Z,0
2018-03-25T03:35:04.000Z,0
2018-03-25T03:36:03.713Z,0
2018-03-25T03:37:04.212Z,0
2018-03-25T03:38:03.420Z,0
2018-03-25T03:39:03.915Z,0
2018-03-25T03:40:03.639Z,0
2018-03-25T03:41:03.617Z,0
2018-03-25T03:42:03.864Z,0
2018-03-25T03:43:03.842Z,0
2018-03-25T03:44:03.558Z,0
2018-03-25T03:45:03.804Z,0
2018-03-25T03:46:03.786Z,0
2018-03-25T03:47:04.025Z,0
2018-03-25T03:48:03.502Z,0
2018-03-25T03:49:02.953Z,0
2018-03-25T03:50:03.717Z,0
2018-03-25T03:51:03.700Z,0
2018-03-25T03:52:03.672Z,0
2018-03-25T03:53:03.649Z,0
2018-03-25T03:54:03.635Z,0
2018-03-25T03:55:03.614Z,0
2018-03-25T03:56:03.344Z,0
2018-03-25T03:57:03.570Z,0
2018-03-25T03:58:03.558Z,0
2018-03-25T03:59:03.286Z,0
2018-03-25T04:00:03.516Z,0
2018-03-25T04:01:03.503Z,0
2018-03-25T04:02:03.227Z,0
2018-03-25T04:03:03.464Z,0
2018-03-25T04:04:03.495Z,0
2018-03-25T04:05:03.162Z,0
2018-03-25T04:06:02.888Z,0
2018-03-25T04:07:03.646Z,0
2018-03-25T04:08:02.844Z,0
2018-03-25T04:09:03.386Z,0
2018-03-25T04:10:02.570Z,0
2018-03-25T04:11:03.575Z,0
2018-03-25T04:12:03.294Z,0
2018-03-25T04:13:03.539Z,0
2018-03-25T04:14:03.254Z,0
2018-03-25T04:15:03.227Z,0
2018-03-25T04:16:03.221Z,0
2018-03-25T04:17:03.197Z,0
2018-03-25T04:18:03.176Z,0
2018-03-25T04:19:03.163Z,0
2018-03-25T04:20:03.137Z,0
2018-03-25T04:21:02.859Z,0
2018-03-25T04:22:02.835Z,0
2018-03-25T04:23:03.074Z,0
2018-03-25T04:24:03.058Z,0
2018-03-25T04:25:03.296Z,0
2018-03-25T04:26:03.279Z,0
2018-03-25T04:27:03.003Z,0
2018-03-25T04:28:02.462Z,0
2018-03-25T04:29:02.962Z,0
2018-03-25T04:30:02.432Z,0
2018-03-25T04:31:03.178Z,0
2018-03-25T04:32:03.197Z,0
2018-03-25T04:33:02.887Z,0
2018-03-25T04:34:02.866Z,0
2018-03-25T04:35:02.845Z,0
2018-03-25T04:36:02.567Z,0
2018-03-25T04:37:02.811Z,0
2018-03-25T04:38:02.528Z,0
2018-03-25T04:39:03.023Z,0
2018-03-25T04:40:02.745Z,0
2018-03-25T04:41:02.990Z,0
2018-03-25T04:42:02.713Z,0
2018-03-25T04:43:02.716Z,0
2018-03-25T04:44:02.668Z,0
2018-03-25T04:45:02.651Z,0
2018-03-25T04:46:02.635Z,0
2018-03-25T04:47:02.875Z,0
2018-03-25T04:48:02.848Z,0
2018-03-25T04:49:02.829Z,0
2018-03-25T04:50:02.550Z,0
2018-03-25T04:51:02.535Z,0
2018-03-25T04:52:02.517Z,0
2018-03-25T04:53:02.767Z,0
2018-03-25T04:54:02.223Z,0
2018-03-25T04:55:02.457Z,0
2018-03-25T04:56:02.734Z,5
2018-03-25T04:57:02.678Z,5
2018-03-25T04:58:02.658Z,5
2018-03-25T04:59:02.383Z,5
2018-03-25T05:00:02.098Z,5
2018-03-25T05:01:02.593Z,5
2018-03-25T05:02:02.318Z,5
2018-03-25T05:03:02.331Z,5
2018-03-25T05:04:02.024Z,5
2018-03-25T05:05:02.002Z,5
2018-03-25T05:06:02.512Z,10
2018-03-25T05:07:01.965Z,10
2018-03-25T05:08:02.209Z,10
2018-03-25T05:09:02.188Z,10
2018-03-25T05:10:02.172Z,10
2018-03-25T05:11:01.883Z,15
2018-03-25T05:12:02.133Z,15
2018-03-25T05:13:01.587Z,15
2018-03-25T05:14:02.091Z,15
2018-03-25T05:15:01.811Z,20
2018-03-25T05:16:01.790Z,20
2018-03-25T05:17:01.509Z,20
2018-03-25T05:18:02.014Z,25
2018-03-25T05:19:01.732Z,25
2018-03-25T05:20:01.984Z,25
2018-03-25T05:21:01.688Z,25
2018-03-25T05:22:01.680Z,30
2018-03-25T05:23:01.906Z,30
2018-03-25T05:24:01.892Z,30
2018-03-25T05:25:01.610Z,35
2018-03-25T05:26:01.593Z,35
2018-03-25T05:27:02.091Z,35
2018-03-25T05:28:01.920Z,35
2018-03-25T05:29:02.054Z,40
2018-03-25T05:30:01.779Z,40
2018-03-25T05:31:01.495Z,40
2018-03-25T05:32:01.478Z,40
2018-03-25T05:33:01.464Z,45
2018-03-25T05:34:01.957Z,45
2018-03-25T05:35:01.430Z,45
2018-03-25T05:36:01.659Z,45
2018-03-25T05:37:01.655Z,50
2018-03-25T05:38:01.108Z,50
2018-03-25T05:39:01.858Z,50
2018-03-25T05:40:01.587Z,55
2018-03-25T05:41:01.041Z,55
2018-03-25T05:42:01.803Z,55
2018-03-25T05:43:01.784Z,55
2018-03-25T05:44:01.255Z,60
2018-03-25T05:45:01.479Z,60
2018-03-25T05:46:01.736Z,60
2018-03-25T05:47:01.186Z,60
2018-03-25T05:48:01.686Z,60
2018-03-25T05:49:01.411Z,65
2018-03-25T05:50:01.387Z,65
2018-03-25T05:51:01.375Z,65
2018-03-25T05:52:01.362Z,65
2018-03-25T05:53:01.333Z,65
2018-03-25T05:54:01.361Z,70
2018-03-25T05:55:01.292Z,70
2018-03-25T05:56:01.269Z,70
2018-03-25T05:57:00.997Z,70
2018-03-25T05:58:01.241Z,70
2018-03-25T05:59:01.472Z,75
2018-03-25T06:00:00.937Z,75
2018-03-25T06:01:00.666Z,75
2018-03-25T06:02:01.475Z,75
2018-03-25T06:03:01.137Z,75
2018-03-25T06:04:01.116Z,80
2018-03-25T06:05:00.841Z,80
2018-03-25T06:06:01.336Z,80
2018-03-25T06:07:01.074Z,80
2018-03-25T06:08:01.040Z,85
2018-03-25T06:09:00.765Z,85
2018-03-25T06:10:00.743Z,85
2018-03-25T06:11:00.729Z,85
2018-03-25T06:12:00.975Z,85
2018-03-25T06:13:01.206Z,90
2018-03-25T06:14:01.184Z,90
2018-03-25T06:15:01.176Z,90
2018-03-25T06:16:01.658Z,90
2018-03-25T06:17:00.617Z,90
2018-03-25T06:18:01.108Z,90
2018-03-25T06:19:00.850Z,90
2018-03-25T06:20:00.815Z,95
2018-03-25T06:21:00.279Z,95
2018-03-25T06:22:01.041Z,95
2018-03-25T06:23:00.500Z,100
2018-03-25T06:24:00.745Z,100
2018-03-25T06:25:00.726Z,100
2018-03-25T06:26:00.702Z,100
2018-03-25T06:27:00.428Z,100
2018-03-25T06:28:00.664Z,100
2018-03-25T06:29:00.978Z,100
2018-03-25T06:30:00.369Z,100
2018-03-25T06:31:00.625Z,100
2018-03-25T06:32:00.596Z,100
2018-03-25T06:33:00.570Z,105
2018-03-25T06:34:00.552Z,110
2018-03-25T06:35:00.535Z,110
2018-03-25T06:36:00.779Z,110
2018-03-25T06:37:00.756Z,115
2018-03-25T06:38:00.858Z,125
2018-03-25T06:39:00.469Z,120
2018-03-25T06:40:00.182Z,120
2018-03-25T06:41:00.687Z,120
2018-03-25T06:42:00.406Z,125
2018-03-25T06:43:00.391Z,125
2018-03-25T06:43:59.854Z,125
2018-03-25T06:45:00.612Z,125
2018-03-25T06:46:00.600Z,120
2018-03-25T06:47:00.314Z,120
2018-03-25T06:48:00.303Z,120
2018-03-25T06:49:00.541Z,120
2018-03-25T06:50:00.536Z,120
2018-03-25T06:51:00.249Z,120
2018-03-25T06:52:00.231Z,120
2018-03-25T06:53:00.211Z,120
2018-03-25T06:53:59.937Z,120
2018-03-25T06:55:00.445Z,120
2018-03-25T06:56:00.170Z,120
2018-03-25T06:56:59.888Z,120
2018-03-25T06:58:00.131Z,120
2018-03-25T06:59:00.390Z,120
2018-03-25T07:00:00.093Z,120
2018-03-25T07:00:59.831Z,125
2018-03-25T07:01:59.964Z,125
2018-03-25T07:03:00.052Z,125
2018-03-25T07:03:59.776Z,125
2018-03-25T07:05:00.273Z,125
2018-03-25T07:06:00.015Z,125
2018-03-25T07:06:59.994Z,125
2018-03-25T07:07:59.964Z,125
2018-03-25T07:09:00.214Z,125
2018-03-25T07:09:59.949Z,125
2018-03-25T07:10:59.658Z,125
2018-03-25T07:11:59.905Z,125
2018-03-25T07:13:00.142Z,125
2018-03-25T07:13:59.922Z,125
2018-03-25T07:14:59.857Z,125
2018-03-25T07:15:59.584Z,125
2018-03-25T07:16:59.569Z,125
2018-03-25T07:17:59.815Z,125
2018-03-25T07:18:59.799Z,125
2018-03-25T07:19:59.529Z,125
2018-03-25T07:20:59.506Z,125
2018-03-25T07:21:59.755Z,125
2018-03-25T07:22:59.480Z,125
2018-03-25T07:23:59.720Z,130
2018-03-25T07:24:59.699Z,130
2018-03-25T07:25:59.429Z,130
2018-03-25T07:26:59.419Z,130
2018-03-25T07:27:59.922Z,130
2018-03-25T07:28:59.394Z,130
2018-03-25T07:29:59.370Z,130
2018-03-25T07:30:59.612Z,130
2018-03-25T07:31:59.075Z,130
2018-03-25T07:32:59.845Z,130
2018-03-25T07:33:59.303Z,130
2018-03-25T07:34:59.809Z,130
2018-03-25T07:35:59.798Z,130
2018-03-25T07:36:59.518Z,130
2018-03-25T07:37:59.510Z,130
2018-03-25T07:38:59.751Z,130
2018-03-25T07:39:59.485Z,135
2018-03-25T07:40:59.458Z,135
2018-03-25T07:41:59.449Z,135
2018-03-25T07:42:59.175Z,135
2018-03-25T07:43:59.410Z,135
2018-03-25T07:44:59.412Z,135
2018-03-25T07:45:59.384Z,135
2018-03-25T07:46:59.370Z,135
2018-03-25T07:47:59.353Z,135
2018-03-25T07:48:59.086Z,135
2018-03-25T07:49:59.644Z,135
2018-03-25T07:50:59.302Z,135
2018-03-25T07:51:59.046Z,140
2018-03-25T07:52:59.290Z,140
2018-03-25T07:53:58.749Z,140
2018-03-25T07:54:59.511Z,140
2018-03-25T07:55:59.237Z,140
2018-03-25T07:56:59.223Z,140
2018-03-25T07:57:58.976Z,140
2018-03-25T07:58:59.445Z,140
2018-03-25T07:59:59.486Z,145
2018-03-25T08:00:59.158Z,145
2018-03-25T08:01:58.627Z,145
2018-03-25T08:02:59.139Z,145
2018-03-25T08:03:59.592Z,145
2018-03-25T08:04:59.353Z,145
2018-03-25T08:05:59.088Z,145
2018-03-25T08:06:58.818Z,145
2018-03-25T08:07:59.057Z,145
2018-03-25T08:08:59.046Z,150
2018-03-25T08:09:59.032Z,150
2018-03-25T08:10:59.016Z,150
2018-03-25T08:11:59.009Z,150
2018-03-25T08:12:58.733Z,150
2018-03-25T08:13:59.227Z,145
2018-03-25T08:14:58.960Z,145
2018-03-25T08:15:59.200Z,145
2018-03-25T08:16:58.669Z,145
2018-03-25T08:17:59.182Z,145
2018-03-25T08:18:58.912Z,145
2018-03-25T08:19:58.887Z,150
2018-03-25T08:20:58.613Z,150
2018-03-25T08:21:59.116Z,150
2018-03-25T08:22:58.857Z,150
2018-03-25T08:23:58.578Z,150
2018-03-25T08:24:58.819Z,150
2018-03-25T08:25:59.062Z,150
2018-03-25T08:26:58.791Z,145
2018-03-25T08:27:58.880Z,150
2018-03-25T08:28:58.510Z,150
2018-03-25T08:29:58.754Z,150
2018-03-25T08:30:58.479Z,150
2018-03-25T08:31:58.980Z,150
2018-03-25T08:32:58.986Z,150
2018-03-25T08:33:58.807Z,150
2018-03-25T08:34:58.687Z,150
2018-03-25T08:35:58.414Z,150
2018-03-25T08:36:58.659Z,150
2018-03-25T08:37:58.908Z,150
2018-03-25T08:38:58.372Z,150
2018-03-25T08:39:58.650Z,150
2018-03-25T08:40:58.864Z,150
2018-03-25T08:41:58.078Z,155
2018-03-25T08:42:58.070Z,155
2018-03-25T08:43:58.566Z,155
2018-03-25T08:44:58.303Z,155
2018-03-25T08:45:58.283Z,155
2018-03-25T08:46:58.794Z,155
2018-03-25T08:47:58.537Z,155
2018-03-25T08:48:58.502Z,155
2018-03-25T08:49:58.754Z,155
2018-03-25T08:50:58.765Z,155
2018-03-25T08:51:58.728Z,155
2018-03-25T08:52:58.714Z,155
2018-03-25T08:53:58.181Z,155
2018-03-25T08:54:58.179Z,155
2018-03-25T08:55:58.411Z,155
2018-03-25T08:56:58.401Z,155
2018-03-25T08:57:58.390Z,155
2018-03-25T08:58:58.636Z,155
2018-03-25T08:59:58.367Z,155
2018-03-25T09:00:58.096Z,155
2018-03-25T09:01:58.338Z,155
2018-03-25T09:02:58.594Z,155
2018-03-25T09:03:58.713Z,155
2018-03-25T09:04:58.296Z,150
2018-03-25T09:05:58.033Z,150
2018-03-25T09:06:58.018Z,150
2018-03-25T09:07:58.266Z,155
2018-03-25T09:08:57.994Z,150
2018-03-25T09:09:58.255Z,150
2018-03-25T09:10:58.495Z,150
2018-03-25T09:11:58.211Z,150
2018-03-25T09:12:58.022Z,150
2018-03-25T09:13:58.189Z,150
2018-03-25T09:14:58.266Z,150
2018-03-25T09:15:58.167Z,150
2018-03-25T09:16:57.895Z,150
2018-03-25T09:17:58.184Z,150
2018-03-25T09:18:58.132Z,150
2018-03-25T09:19:57.860Z,145
2018-03-25T09:20:57.849Z,145
2018-03-25T09:21:57.579Z,150
2018-03-25T09:22:58.156Z,145
2018-03-25T09:23:57.814Z,145
2018-03-25T09:24:57.539Z,145
2018-03-25T09:25:58.049Z,145
2018-03-25T09:26:57.774Z,145
2018-03-25T09:27:58.024Z,145
2018-03-25T09:28:57.752Z,145
2018-03-25T09:29:57.759Z,145
2018-03-25T09:30:57.728Z,145
2018-03-25T09:31:57.718Z,145
2018-03-25T09:32:57.961Z,145
2018-03-25T09:33:58.205Z,145
2018-03-25T09:34:57.674Z,145
2018-03-25T09:35:58.188Z,145
2018-03-25T09:36:58.176Z,145
2018-03-25T09:37:58.159Z,145
2018-03-25T09:38:57.889Z,145
2018-03-25T09:39:57.621Z,145
2018-03-25T09:40:58.145Z,145
2018-03-25T09:41:57.852Z,140
2018-03-25T09:42:57.841Z,140
2018-03-25T09:43:57.828Z,140
2018-03-25T09:44:57.822Z,140
2018-03-25T09:45:57.885Z,145
2018-03-25T09:46:58.049Z,145
2018-03-25T09:47:58.047Z,145
2018-03-25T09:48:57.767Z,145
2018-03-25T09:49:57.501Z,140
2018-03-25T09:50:57.485Z,140
2018-03-25T09:51:57.473Z,140
2018-03-25T09:52:57.719Z,140
2018-03-25T09:53:57.454Z,140
2018-03-25T09:54:57.961Z,145
2018-03-25T09:55:57.682Z,140
2018-03-25T09:56:57.424Z,140
2018-03-25T09:57:57.938Z,140
2018-03-25T09:58:57.650Z,140
2018-03-25T09:59:57.896Z,140
2018-03-25T10:00:57.369Z,140
2018-03-25T10:01:57.107Z,140
2018-03-25T10:02:57.886Z,140
2018-03-25T10:03:57.446Z,145
2018-03-25T10:04:58.169Z,140
2018-03-25T10:05:57.572Z,140
2018-03-25T10:06:57.816Z,140
2018-03-25T10:07:57.816Z,140
2018-03-25T10:08:57.534Z,140
2018-03-25T10:09:57.271Z,140
2018-03-25T10:10:56.993Z,140
2018-03-25T10:11:56.984Z,140
2018-03-25T10:12:57.490Z,140
2018-03-25T10:13:57.224Z,140
2018-03-25T10:14:57.211Z,140
2018-03-25T10:15:57.214Z,140
2018-03-25T10:16:57.779Z,140
2018-03-25T10:17:57.178Z,140
2018-03-25T10:18:57.222Z,140
2018-03-25T10:19:57.459Z,140
2018-03-25T10:20:57.407Z,140
2018-03-25T10:21:57.133Z,140
2018-03-25T10:22:57.384Z,140
2018-03-25T10:23:57.376Z,140
2018-03-25T10:24:57.385Z,140
2018-03-25T10:25:57.599Z,140
2018-03-25T10:26:57.594Z,135
2018-03-25T10:27:57.070Z,135
2018-03-25T10:28:57.608Z,140
2018-03-25T10:29:57.556Z,135
2018-03-25T10:30:57.287Z,140
2018-03-25T10:31:57.274Z,140
2018-03-25T10:32:57.515Z,140
2018-03-25T10:33:57.520Z,140
2018-03-25T10:34:57.246Z,140
2018-03-25T10:35:56.712Z,140
2018-03-25T10:36:56.966Z,140
2018-03-25T10:37:57.066Z,135
2018-03-25T10:38:57.475Z,140
2018-03-25T10:39:57.442Z,140
2018-03-25T10:40:56.924Z,140
2018-03-25T10:41:57.166Z,140
2018-03-25T10:42:57.468Z,140
2018-03-25T10:43:57.393Z,140
2018-03-25T10:44:57.403Z,140
2018-03-25T10:45:57.119Z,140
2018-03-25T10:46:57.108Z,140
2018-03-25T10:47:57.088Z,140
2018-03-25T10:48:57.359Z,140
2018-03-25T10:49:57.072Z,140
2018-03-25T10:50:57.057Z,140
2018-03-25T10:51:56.788Z,140
2018-03-25T10:52:56.521Z,140
2018-03-25T10:53:56.764Z,140
2018-03-25T10:54:56.758Z,140
2018-03-25T10:55:57.005Z,140
2018-03-25T10:56:56.735Z,140
2018-03-25T10:57:56.718Z,140
2018-03-25T10:58:56.969Z,140
2018-03-25T10:59:57.210Z,135
2018-03-25T11:00:56.946Z,135
2018-03-25T11:01:56.943Z,135
2018-03-25T11:02:57.178Z,135
2018-03-25T11:03:56.913Z,135
2018-03-25T11:04:56.901Z,140
2018-03-25T11:05:56.388Z,140
2018-03-25T11:06:56.885Z,140
2018-03-25T11:07:56.611Z,140
2018-03-25T11:08:56.856Z,140
2018-03-25T11:09:56.327Z,140
2018-03-25T11:10:57.098Z,140
2018-03-25T11:11:56.847Z,140
2018-03-25T11:12:56.817Z,140
2018-03-25T11:13:56.552Z,140
2018-03-25T11:14:56.534Z,140
2018-03-25T11:15:56.781Z,140
2018-03-25T11:16:56.768Z,140
2018-03-25T11:17:56.765Z,140
2018-03-25T11:18:56.795Z,140
2018-03-25T11:19:56.999Z,140
2018-03-25T11:20:56.735Z,140
2018-03-25T11:21:56.723Z,140
2018-03-25T11:22:56.960Z,140
2018-03-25T11:23:56.689Z,140
2018-03-25T11:24:56.699Z,140
2018-03-25T11:25:56.670Z,140
2018-03-25T11:26:56.405Z,135
2018-03-25T11:27:56.666Z,135
2018-03-25T11:28:56.900Z,135
2018-03-25T11:29:56.369Z,135
2018-03-25T11:30:56.101Z,135
2018-03-25T11:31:56.156Z,135
2018-03-25T11:32:56.346Z,135
2018-03-25T11:33:56.840Z,135
2018-03-25T11:34:56.311Z,140
2018-03-25T11:35:56.818Z,135
2018-03-25T11:36:56.814Z,135
2018-03-25T11:37:56.543Z,135
2018-03-25T11:38:56.569Z,140
2018-03-25T11:39:56.779Z,135
2018-03-25T11:40:56.505Z,135
2018-03-25T11:41:55.983Z,135
2018-03-25T11:42:56.747Z,135
2018-03-25T11:43:56.264Z,135
2018-03-25T11:44:56.718Z,135
2018-03-25T11:45:56.711Z,135
2018-03-25T11:46:56.444Z,135
2018-03-25T11:47:56.497Z,135
2018-03-25T11:48:56.687Z,135
2018-03-25T11:49:56.409Z,135
2018-03-25T11:50:56.694Z,135
2018-03-25T11:51:56.653Z,135
2018-03-25T11:52:55.859Z,135
2018-03-25T11:53:56.624Z,135
2018-03-25T11:54:56.354Z,135
2018-03-25T11:55:56.608Z,135
2018-03-25T11:56:56.330Z,130
2018-03-25T11:57:56.320Z,130
2018-03-25T11:58:55.793Z,135
2018-03-25T11:59:55.782Z,135
2018-03-25T12:00:56.545Z,135
2018-03-25T12:01:56.021Z,135
2018-03-25T12:02:56.269Z,135
2018-03-25T12:03:56.253Z,135
2018-03-25T12:04:56.247Z,135
2018-03-25T12:05:55.716Z,135
2018-03-25T12:06:55.977Z,135
2018-03-25T12:07:56.464Z,135
2018-03-25T12:08:55.981Z,135
2018-03-25T12:09:56.194Z,135
2018-03-25T12:10:56.179Z,135
2018-03-25T12:11:55.907Z,135
2018-03-25T12:12:56.421Z,135
2018-03-25T12:13:56.407Z,135
2018-03-25T12:14:55.948Z,135
2018-03-25T12:15:56.124Z,135
2018-03-25T12:16:55.672Z,135
2018-03-25T12:17:56.111Z,135
2018-03-25T12:18:56.157Z,135
2018-03-25T12:19:56.344Z,135
2018-03-25T12:20:56.344Z,135
2018-03-25T12:21:56.055Z,135
2018-03-25T12:22:55.836Z,135
2018-03-25T12:23:55.775Z,135
2018-03-25T12:24:56.292Z,135
2018-03-25T12:25:56.272Z,135
2018-03-25T12:26:56.268Z,135
2018-03-25T12:27:55.737Z,135
2018-03-25T12:28:55.982Z,135
2018-03-25T12:29:55.972Z,135
2018-03-25T12:30:56.232Z,135
2018-03-25T12:31:56.216Z,135
2018-03-25T12:32:55.680Z,135
2018-03-25T12:33:55.935Z,135
2018-03-25T12:34:55.407Z,135
2018-03-25T12:35:55.923Z,135
2018-03-25T12:36:56.158Z,135
2018-03-25T12:37:55.893Z,135
2018-03-25T12:38:55.911Z,135
2018-03-25T12:39:56.126Z,135
2018-03-25T12:40:56.134Z,135
2018-03-25T12:41:55.856Z,135
2018-03-25T12:42:56.100Z,135
2018-03-25T12:43:55.576Z,130
2018-03-25T12:44:55.833Z,130
2018-03-25T12:45:55.285Z,130
2018-03-25T12:46:55.531Z,135
2018-03-25T12:47:56.077Z,135
2018-03-25T12:48:55.766Z,135
2018-03-25T12:49:55.506Z,135
2018-03-25T12:50:55.752Z,135
2018-03-25T12:51:55.996Z,135
2018-03-25T12:52:55.468Z,135
2018-03-25T12:53:55.726Z,130
2018-03-25T12:54:55.713Z,130
2018-03-25T12:55:55.697Z,135
2018-03-25T12:56:55.949Z,130
2018-03-25T12:57:55.684Z,130
2018-03-25T12:58:55.406Z,130
2018-03-25T12:59:55.395Z,135
2018-03-25T13:00:55.904Z,130
2018-03-25T13:01:54.856Z,130
2018-03-25T13:02:55.103Z,130
2018-03-25T13:03:55.092Z,130
2018-03-25T13:04:55.896Z,130
2018-03-25T13:05:55.071Z,130
2018-03-25T13:06:55.318Z,130
2018-03-25T13:07:55.563Z,130
2018-03-25T13:08:55.305Z,130
2018-03-25T13:09:55.808Z,130
2018-03-25T13:10:55.803Z,130
2018-03-25T13:11:55.530Z,130
2018-03-25T13:12:55.516Z,130
2018-03-25T13:13:55.764Z,130
2018-03-25T13:14:55.760Z,130
2018-03-25T13:15:55.525Z,135
2018-03-25T13:16:55.740Z,135
2018-03-25T13:17:55.204Z,130
2018-03-25T13:18:54.676Z,130
2018-03-25T13:19:55.442Z,130
2018-03-25T13:20:55.173Z,130
2018-03-25T13:21:54.997Z,130
2018-03-25T13:22:55.411Z,135
2018-03-25T13:23:55.686Z,130
2018-03-25T13:24:55.390Z,130
2018-03-25T13:25:55.117Z,130
2018-03-25T13:26:55.416Z,130
2018-03-25T13:27:55.107Z,130
2018-03-25T13:28:55.429Z,130
2018-03-25T13:29:55.080Z,130
2018-03-25T13:30:55.585Z,130
2018-03-25T13:31:55.309Z,130
2018-03-25T13:32:55.558Z,130
2018-03-25T13:33:55.555Z,130
2018-03-25T13:34:55.115Z,130
2018-03-25T13:35:55.543Z,130
2018-03-25T13:36:55.262Z,130
2018-03-25T13:37:54.988Z,130
2018-03-25T13:38:55.235Z,130
2018-03-25T13:39:55.486Z,130
2018-03-25T13:40:55.221Z,130
2018-03-25T13:41:55.479Z,130
2018-03-25T13:42:55.457Z,130
2018-03-25T13:43:54.675Z,130
2018-03-25T13:44:55.172Z,130
2018-03-25T13:45:54.921Z,130
2018-03-25T13:46:55.157Z,130
2018-03-25T13:47:55.404Z,130
2018-03-25T13:48:55.131Z,130
2018-03-25T13:49:55.127Z,130
2018-03-25T13:50:54.853Z,130
2018-03-25T13:51:54.849Z,130
2018-03-25T13:52:55.350Z,130
2018-03-25T13:53:54.857Z,130
2018-03-25T13:54:54.825Z,130
2018-03-25T13:55:54.807Z,130
2018-03-25T13:56:55.046Z,130
2018-03-25T13:57:54.780Z,130
2018-03-25T13:58:54.768Z,130
2018-03-25T13:59:55.287Z,130
2018-03-25T14:00:55.119Z,130
2018-03-25T14:01:54.998Z,130
2018-03-25T14:02:54.467Z,130
2018-03-25T14:03:55.236Z,130
2018-03-25T14:04:54.961Z,130
2018-03-25T14:05:55.211Z,130
2018-03-25T14:06:54.681Z,130
2018-03-25T14:07:55.006Z,130
2018-03-25T14:08:55.183Z,125